Time;durP1;ratioP1;P1;durP2;ratioP2;P2;SDS_P1;SDS_P2;PMS_P1;PMS_P2;Temp;Humidity;BMP_temperature;BMP_pressure;BME280_temperature;BME280_humidity;BME280_pressure;Samples;Min_cycle;Max_cycle;Signal;HPM_P1;HPM_P2
2021/12/20 00:01:45;;;;;;;17.40;5.28;;;7.60;99.90;;;;;;5119852;27;20099;-73
2021/12/20 00:04:11;;;;;;;17.25;5.10;;;7.60;99.90;;;;;;5121064;27;20053;-73
2021/12/20 00:06:37;;;;;;;14.02;4.50;;;7.60;99.90;;;;;;5120814;27;20046;-73
2021/12/20 00:09:03;;;;;;;14.88;5.55;;;7.60;99.90;;;;;;5121056;27;20043;-73
2021/12/20 00:11:29;;;;;;;17.70;6.00;;;7.60;99.90;;;;;;5121158;27;20130;-74
2021/12/20 00:13:55;;;;;;;16.17;4.95;;;7.70;99.90;;;;;;5139244;27;20045;-73
2021/12/20 00:16:20;;;;;;;14.23;4.75;;;7.70;99.90;;;;;;5120112;27;20125;-73
2021/12/20 00:18:46;;;;;;;9.90;4.07;;;7.60;99.90;;;;;;5138126;27;20039;-72
2021/12/20 00:21:12;;;;;;;17.52;4.78;;;7.70;99.90;;;;;;5119645;27;20149;-74
2021/12/20 00:23:38;;;;;;;16.27;4.53;;;7.70;99.90;;;;;;5119590;27;20046;-73
2021/12/20 00:26:03;;;;;;;10.98;3.67;;;7.70;99.90;;;;;;5138472;27;20693;-73
2021/12/20 00:28:29;;;;;;;16.15;5.10;;;7.70;99.90;;;;;;5119121;27;20062;-74
2021/12/20 00:30:55;;;;;;;14.30;4.78;;;7.60;99.90;;;;;;5120251;27;20062;-73
2021/12/20 00:33:21;;;;;;;8.63;3.50;;;7.60;99.90;;;;;;5120243;27;20039;-73
2021/12/20 00:35:47;;;;;;;16.60;4.47;;;7.60;99.90;;;;;;5138692;27;20035;-74
2021/12/20 00:40:57;;;;;;;15.30;4.22;;;7.70;99.90;;;;;;5119311;27;20242;-74
2021/12/20 00:43:22;;;;;;;20.02;5.55;;;7.60;99.90;;;;;;5139585;27;20050;-73
2021/12/20 00:45:48;;;;;;;12.70;5.88;;;7.60;99.90;;;;;;5119059;27;20057;-73
2021/12/20 00:48:14;;;;;;;13.00;6.28;;;7.60;99.90;;;;;;5139173;27;20057;-73
2021/12/20 00:50:41;;;;;;;15.85;3.92;;;7.60;99.90;;;;;;5121202;27;20039;-73
2021/12/20 00:53:08;;;;;;;11.68;4.38;;;7.60;99.90;;;;;;5138909;27;20431;-73
2021/12/20 00:55:33;;;;;;;10.63;5.10;;;7.60;99.90;;;;;;5119114;27;20039;-73
2021/12/20 00:57:59;;;;;;;16.38;4.50;;;7.50;99.90;;;;;;5119851;27;20057;-73
2021/12/20 01:00:46;;;;;;;18.23;6.18;;;7.40;99.90;;;;;;5138936;27;20046;-74
2021/12/20 01:03:13;;;;;;;21.50;4.50;;;7.40;99.90;;;;;;5117182;27;20040;-73
2021/12/20 01:05:39;;;;;;;11.35;5.25;;;7.40;99.90;;;;;;5136640;27;20092;-74
2021/12/20 01:08:07;;;;;;;8.00;3.10;;;7.30;99.90;;;;;;5118510;27;20043;-74
2021/12/20 01:10:35;;;;;;;11.40;4.25;;;7.30;99.90;;;;;;5136023;27;20054;-73
2021/12/20 01:13:02;;;;;;;9.95;3.92;;;7.30;99.90;;;;;;5118602;27;20076;-74
2021/12/20 01:15:36;;;;;;;13.18;3.53;;;7.20;99.90;;;;;;5137637;27;20255;-74
2021/12/20 01:18:03;;;;;;;10.80;3.45;;;7.30;99.90;;;;;;5117274;27;20051;-74
2021/12/20 01:20:29;;;;;;;11.80;4.43;;;7.20;99.90;;;;;;5118288;27;20146;-74
2021/12/20 01:22:56;;;;;;;17.35;4.13;;;7.30;99.90;;;;;;5118639;27;20908;-74
2021/12/20 01:25:22;;;;;;;18.23;5.32;;;7.30;99.90;;;;;;5119449;27;20046;-74
2021/12/20 01:27:48;;;;;;;15.93;4.47;;;7.20;99.90;;;;;;5137853;27;20119;-74
2021/12/20 01:30:16;;;;;;;26.05;5.47;;;7.20;99.90;;;;;;5137314;27;20536;-74
2021/12/20 01:32:42;;;;;;;18.48;6.32;;;7.10;99.90;;;;;;5118954;27;20087;-74
2021/12/20 01:35:09;;;;;;;13.68;4.32;;;7.10;99.90;;;;;;5119660;27;20070;-74
2021/12/20 01:37:35;;;;;;;14.05;4.22;;;7.00;99.90;;;;;;5135608;27;20051;-74
2021/12/20 01:40:01;;;;;;;7.32;3.10;;;7.00;99.90;;;;;;5139577;27;20046;-74
2021/12/20 01:42:31;;;;;;;12.05;3.72;;;6.90;99.90;;;;;;5132329;27;20526;-74
2021/12/20 01:44:57;;;;;;;9.05;3.03;;;6.80;99.90;;;;;;5113290;27;20051;-74
2021/12/20 01:47:28;;;;;;;15.98;3.75;;;6.80;99.90;;;;;;5132128;27;20513;-75
2021/12/20 01:50:01;;;;;;;16.42;4.40;;;6.70;99.90;;;;;;5127829;27;20575;-74
2021/12/20 01:52:29;;;;;;;15.50;4.57;;;6.70;99.90;;;;;;5129163;27;20054;-75
2021/12/20 01:54:55;;;;;;;9.77;2.90;;;6.60;99.90;;;;;;5139066;27;20082;-74
2021/12/20 01:57:22;;;;;;;6.40;3.05;;;6.60;99.90;;;;;;5129484;27;20154;-74
2021/12/20 01:59:48;;;;;;;4.97;3.25;;;6.60;99.90;;;;;;5120182;27;20115;-75
2021/12/20 02:02:14;;;;;;;10.70;3.25;;;6.60;99.90;;;;;;5139454;27;20149;-74
2021/12/20 02:04:47;;;;;;;12.70;4.63;;;6.50;99.90;;;;;;5139634;27;20121;-75
2021/12/20 02:07:31;;;;;;;11.40;4.25;;;6.60;99.90;;;;;;5120058;27;20533;-75
2021/12/20 02:09:56;;;;;;;8.73;3.05;;;6.60;99.90;;;;;;5139211;27;20058;-75
2021/12/20 02:12:22;;;;;;;10.00;3.03;;;6.60;99.90;;;;;;5138405;27;20538;-76
2021/12/20 02:14:47;;;;;;;13.70;3.50;;;6.60;99.90;;;;;;5138893;27;20815;-76
2021/12/20 02:17:14;;;;;;;6.18;3.10;;;6.70;99.90;;;;;;5139107;27;20058;-76
2021/12/20 02:19:39;;;;;;;14.32;3.33;;;6.70;99.90;;;;;;5119571;27;20078;-76
2021/12/20 02:22:06;;;;;;;22.65;2.97;;;6.70;99.90;;;;;;5139962;27;20048;-76
2021/12/20 02:24:32;;;;;;;9.63;3.85;;;6.70;99.90;;;;;;5118400;27;20107;-76
2021/12/20 02:26:57;;;;;;;8.63;2.20;;;6.70;99.90;;;;;;5118812;27;20050;-76
2021/12/20 02:29:39;;;;;;;7.05;3.25;;;6.70;99.90;;;;;;5114488;27;20497;-76
2021/12/20 02:37:33;;;;;;;5.50;2.10;;;6.60;99.90;;;;;;5138470;27;20115;-76
2021/12/20 02:39:59;;;;;;;5.38;2.42;;;6.50;99.90;;;;;;5116927;27;20829;-76
2021/12/20 02:42:31;;;;;;;9.95;3.67;;;6.60;99.90;;;;;;5119601;27;20045;-76
2021/12/20 02:45:11;;;;;;;8.73;2.63;;;6.50;99.90;;;;;;5119680;27;20096;-76
2021/12/20 02:47:46;;;;;;;5.70;2.40;;;6.50;99.90;;;;;;5117189;27;20073;-75
2021/12/20 02:50:13;;;;;;;8.00;3.28;;;6.50;99.90;;;;;;5123915;27;20076;-76
2021/12/20 02:52:40;;;;;;;5.45;2.08;;;6.40;99.90;;;;;;5117502;27;20057;-76
2021/12/20 02:55:07;;;;;;;5.25;2.20;;;6.30;99.90;;;;;;5123583;27;20039;-76
2021/12/20 02:57:37;;;;;;;10.63;2.70;;;6.30;99.90;;;;;;5117127;27;20051;-76
2021/12/20 03:00:06;;;;;;;7.55;2.13;;;6.20;99.90;;;;;;5123208;27;20142;-76
2021/12/20 03:02:32;;;;;;;8.55;2.72;;;6.20;99.90;;;;;;5138790;27;20039;-76
2021/12/20 03:04:57;;;;;;;6.50;2.28;;;6.10;99.90;;;;;;5138553;27;20067;-76
2021/12/20 03:07:26;;;;;;;5.60;2.90;;;6.10;99.90;;;;;;5140974;27;20049;-77
2021/12/20 03:09:58;;;;;;;5.20;1.95;;;6.00;99.90;;;;;;5120100;27;20084;-77
2021/12/20 03:12:27;;;;;;;6.70;2.55;;;6.00;99.90;;;;;;5120697;27;20845;-77
2021/12/20 03:15:00;;;;;;;4.93;2.97;;;6.00;99.90;;;;;;5122018;27;20118;-76
2021/12/20 03:17:25;;;;;;;8.10;2.35;;;5.90;99.90;;;;;;5120044;27;20050;-77
2021/12/20 03:19:51;;;;;;;5.25;2.10;;;5.90;99.90;;;;;;5121750;27;20738;-76
2021/12/20 03:22:17;;;;;;;4.43;2.00;;;5.90;99.90;;;;;;5119479;27;20047;-76
2021/12/20 03:24:43;;;;;;;11.05;3.08;;;5.80;99.90;;;;;;5121902;27;20039;-76
2021/12/20 03:27:09;;;;;;;6.47;2.15;;;5.70;99.90;;;;;;5119933;27;20088;-76
2021/12/20 03:29:34;;;;;;;7.72;2.80;;;5.70;99.90;;;;;;5119449;27;20828;-76
2021/12/20 03:32:00;;;;;;;4.95;2.55;;;5.70;99.90;;;;;;5120166;27;20155;-76
2021/12/20 03:34:25;;;;;;;4.53;2.22;;;5.60;99.90;;;;;;5120277;27;20042;-76
2021/12/20 03:36:51;;;;;;;6.28;2.72;;;5.60;99.90;;;;;;5117824;27;20047;-76
2021/12/20 03:39:16;;;;;;;7.10;2.65;;;5.60;99.90;;;;;;5117544;27;20046;-76
2021/12/20 03:41:43;;;;;;;9.90;2.42;;;5.60;99.90;;;;;;5119072;27;20564;-76
2021/12/20 03:44:09;;;;;;;6.03;2.17;;;6.50;99.90;;;;;;5120229;27;20104;-76
2021/12/20 03:46:35;;;;;;;6.68;2.85;;;5.60;99.90;;;;;;5120547;27;20047;-76
2021/12/20 03:49:01;;;;;;;9.02;2.78;;;5.50;99.90;;;;;;5120665;27;20099;-76
2021/12/20 03:51:26;;;;;;;7.28;2.25;;;5.50;99.90;;;;;;5121651;27;20055;-76
2021/12/20 03:53:52;;;;;;;10.73;3.05;;;5.50;99.90;;;;;;5122655;27;20089;-76
2021/12/20 03:56:17;;;;;;;5.82;2.03;;;5.40;99.90;;;;;;5121594;27;20138;-77
2021/12/20 03:58:43;;;;;;;4.00;2.63;;;5.40;99.90;;;;;;5124624;27;20880;-77
2021/12/20 04:01:11;;;;;;;10.85;3.80;;;5.30;99.90;;;;;;5132302;27;20043;-77
2021/12/20 04:03:38;;;;;;;14.30;3.58;;;5.20;99.90;;;;;;5124431;27;20078;-77
2021/12/20 04:06:06;;;;;;;2.75;1.88;;;5.20;99.90;;;;;;5121228;27;20521;-77
2021/12/20 04:08:32;;;;;;;6.70;2.63;;;5.20;99.90;;;;;;5121450;27;20054;-77
2021/12/20 04:10:58;;;;;;;3.85;3.55;;;5.20;99.90;;;;;;5119691;27;20059;-77
2021/12/20 04:13:26;;;;;;;7.68;3.30;;;5.10;99.90;;;;;;5120765;27;20051;-76
2021/12/20 04:15:53;;;;;;;4.70;2.55;;;5.10;99.90;;;;;;5123971;27;20051;-77
2021/12/20 04:18:19;;;;;;;7.03;2.47;;;5.00;99.90;;;;;;5121824;27;20047;-77
2021/12/20 04:20:45;;;;;;;3.95;2.95;;;5.20;99.90;;;;;;5118744;27;20622;-76
2021/12/20 04:23:10;;;;;;;6.75;3.67;;;5.00;99.90;;;;;;5121200;27;20473;-76
2021/12/20 04:25:36;;;;;;;4.25;2.63;;;4.90;99.90;;;;;;5119101;27;20434;-77
2021/12/20 04:28:02;;;;;;;6.05;1.95;;;4.80;99.90;;;;;;5121471;27;20054;-77
2021/12/20 04:30:30;;;;;;;5.85;1.85;;;4.80;99.90;;;;;;5120644;27;20783;-77
2021/12/20 04:32:56;;;;;;;8.23;2.45;;;4.60;99.90;;;;;;5112927;27;20490;-76
2021/12/20 04:35:22;;;;;;;7.22;2.35;;;4.70;99.90;;;;;;5121604;27;20470;-77
2021/12/20 04:37:49;;;;;;;4.22;1.95;;;4.60;99.90;;;;;;5119417;27;20058;-76
2021/12/20 04:40:19;;;;;;;7.18;2.67;;;4.50;99.90;;;;;;5120143;27;20047;-76
2021/12/20 04:42:47;;;;;;;3.88;1.73;;;4.50;99.90;;;;;;5120828;27;20103;-76
2021/12/20 04:45:13;;;;;;;3.05;1.50;;;4.40;99.90;;;;;;5119618;27;20053;-76
2021/12/20 04:47:39;;;;;;;8.45;2.33;;;4.40;99.90;;;;;;5118735;27;20055;-76
2021/12/20 04:50:05;;;;;;;6.20;2.05;;;4.40;99.90;;;;;;5118932;27;20583;-77
2021/12/20 04:52:31;;;;;;;2.92;1.30;;;4.30;99.90;;;;;;5120283;27;20299;-77
2021/12/20 04:54:56;;;;;;;3.40;2.05;;;4.30;99.90;;;;;;5118254;27;20770;-77
2021/12/20 04:57:22;;;;;;;4.00;1.70;;;4.30;99.90;;;;;;5120061;27;20767;-77
2021/12/20 04:59:48;;;;;;;8.00;2.85;;;4.30;99.90;;;;;;5120073;27;20510;-77
2021/12/20 05:02:13;;;;;;;3.15;1.63;;;4.20;99.90;;;;;;5119419;27;20124;-77
2021/12/20 05:04:39;;;;;;;4.32;1.58;;;4.20;99.90;;;;;;5118389;27;20069;-77
2021/12/20 05:07:05;;;;;;;6.63;1.77;;;4.10;99.90;;;;;;5123266;27;20129;-77
2021/12/20 05:09:36;;;;;;;7.45;2.15;;;4.10;99.90;;;;;;5118126;27;20165;-76
2021/12/20 05:12:11;;;;;;;7.40;1.80;;;4.20;99.90;;;;;;5120703;27;20116;-77
2021/12/20 05:14:40;;;;;;;7.05;1.88;;;4.10;99.90;;;;;;5118857;27;20146;-76
2021/12/20 05:17:05;;;;;;;5.78;1.92;;;4.00;99.90;;;;;;5117792;27;20055;-77
2021/12/20 05:19:31;;;;;;;4.07;2.13;;;4.00;99.90;;;;;;5120242;27;20057;-76
2021/12/20 05:21:56;;;;;;;6.10;1.85;;;3.90;99.90;;;;;;5117781;27;20047;-77
2021/12/20 05:24:22;;;;;;;5.78;2.53;;;3.90;99.90;;;;;;5118786;27;20057;-76
2021/12/20 05:26:48;;;;;;;4.07;2.03;;;3.90;99.90;;;;;;5119947;27;20150;-76
2021/12/20 05:29:13;;;;;;;8.63;2.17;;;4.00;99.90;;;;;;5117991;27;20826;-77
2021/12/20 05:31:39;;;;;;;10.50;4.28;;;4.00;99.90;;;;;;5111582;27;20055;-77
2021/12/20 05:34:05;;;;;;;7.00;2.15;;;3.90;99.90;;;;;;5118457;27;20059;-77
2021/12/20 05:36:30;;;;;;;10.15;2.83;;;3.90;99.90;;;;;;5112740;27;20055;-77
2021/12/20 05:38:56;;;;;;;5.15;2.05;;;3.90;99.90;;;;;;5118279;27;20099;-77
2021/12/20 05:41:22;;;;;;;5.45;2.40;;;3.90;99.90;;;;;;5118684;27;20114;-77
2021/12/20 05:43:48;;;;;;;7.38;3.05;;;3.80;99.90;;;;;;5118050;27;20057;-76
2021/12/20 05:46:14;;;;;;;3.72;2.20;;;3.80;99.90;;;;;;5119732;27;20051;-77
2021/12/20 05:48:40;;;;;;;5.38;2.28;;;3.80;99.90;;;;;;5118139;27;20050;-77
2021/12/20 05:51:06;;;;;;;4.50;2.55;;;3.80;99.90;;;;;;5119323;27;20039;-77
2021/12/20 05:53:31;;;;;;;9.85;1.98;;;3.70;99.90;;;;;;5118940;27;20108;-77
2021/12/20 05:55:57;;;;;;;4.47;1.95;;;3.60;99.90;;;;;;5118334;27;20055;-77
2021/12/20 05:58:23;;;;;;;4.57;1.73;;;3.60;99.90;;;;;;5117516;27;20108;-77
2021/12/20 06:00:48;;;;;;;6.13;2.13;;;4.20;99.90;;;;;;5118132;27;20494;-77
2021/12/20 06:03:14;;;;;;;7.97;1.90;;;3.40;99.90;;;;;;5118061;27;20777;-77
2021/12/20 06:05:42;;;;;;;4.25;2.10;;;3.50;99.90;;;;;;5119000;27;20059;-77
2021/12/20 06:08:09;;;;;;;7.05;1.70;;;3.50;99.90;;;;;;5121805;27;20258;-77
2021/12/20 06:10:35;;;;;;;10.90;2.70;;;3.50;99.90;;;;;;5133254;27;20199;-77
2021/12/20 06:13:04;;;;;;;4.45;2.05;;;3.50;99.90;;;;;;5139509;27;20567;-76
2021/12/20 06:15:30;;;;;;;5.07;2.20;;;3.50;99.90;;;;;;5140629;27;20050;-76
2021/12/20 06:17:56;;;;;;;6.05;2.22;;;3.50;99.90;;;;;;5121827;27;20047;-77
2021/12/20 06:20:22;;;;;;;4.05;2.20;;;3.40;99.90;;;;;;5139819;27;20050;-77
2021/12/20 06:22:47;;;;;;;6.95;2.53;;;3.40;99.90;;;;;;5139895;27;20597;-76
2021/12/20 06:25:14;;;;;;;4.25;2.67;;;3.40;99.90;;;;;;5139484;27;20141;-77
2021/12/20 06:27:40;;;;;;;13.43;3.10;;;3.40;99.90;;;;;;5139709;27;20051;-77
2021/12/20 06:30:09;;;;;;;3.05;2.55;;;3.30;99.90;;;;;;5139810;27;20035;-77
2021/12/20 06:32:39;;;;;;;5.40;2.22;;;3.30;99.90;;;;;;5133659;27;20058;-77
2021/12/20 06:35:05;;;;;;;2.53;1.92;;;3.30;99.90;;;;;;5140155;27;20043;-77
2021/12/20 06:37:32;;;;;;;6.55;2.40;;;3.30;99.90;;;;;;5140167;27;20103;-77
2021/12/20 06:39:58;;;;;;;6.30;2.58;;;3.30;99.90;;;;;;5121130;27;20158;-77
2021/12/20 06:42:24;;;;;;;5.95;1.98;;;3.30;99.90;;;;;;5139768;27;20046;-77
2021/12/20 06:44:49;;;;;;;9.00;2.20;;;3.30;99.90;;;;;;5141331;27;20050;-77
2021/12/20 06:47:16;;;;;;;7.40;2.80;;;3.20;99.90;;;;;;5140173;27;20046;-77
2021/12/20 06:49:41;;;;;;;4.10;2.03;;;3.20;99.90;;;;;;5121622;27;20046;-76
2021/12/20 06:52:07;;;;;;;4.43;2.05;;;3.20;99.90;;;;;;5141718;27;20449;-77
2021/12/20 06:54:33;;;;;;;6.22;3.20;;;3.20;99.90;;;;;;5140727;27;20134;-76
2021/12/20 06:56:59;;;;;;;13.88;3.00;;;3.10;99.90;;;;;;5141228;27;20115;-77
2021/12/20 06:59:24;;;;;;;6.30;2.60;;;3.10;99.90;;;;;;5141800;27;20130;-77
2021/12/20 07:01:50;;;;;;;6.18;2.67;;;3.00;99.90;;;;;;5140578;27;20035;-76
2021/12/20 07:04:16;;;;;;;4.43;2.40;;;2.90;99.90;;;;;;5141241;27;20043;-77
2021/12/20 07:06:42;;;;;;;11.15;2.80;;;2.90;99.90;;;;;;5121514;27;20046;-77
2021/12/20 07:09:08;;;;;;;4.95;3.10;;;3.00;99.90;;;;;;5139961;27;20541;-77
2021/12/20 07:11:34;;;;;;;7.82;2.83;;;2.90;99.90;;;;;;5140444;27;20080;-77
2021/12/20 07:14:00;;;;;;;7.45;2.10;;;2.80;99.90;;;;;;5122253;27;20043;-77
2021/12/20 07:16:25;;;;;;;5.60;2.17;;;2.80;99.90;;;;;;5140429;27;20050;-77
2021/12/20 07:18:51;;;;;;;6.25;2.10;;;2.80;99.90;;;;;;5121951;27;20046;-76
2021/12/20 07:21:17;;;;;;;4.88;2.10;;;2.80;99.90;;;;;;5119549;27;20039;-77
2021/12/20 07:23:43;;;;;;;2.88;2.05;;;2.80;99.90;;;;;;5121550;27;20052;-76
2021/12/20 07:26:11;;;;;;;7.00;3.83;;;2.80;99.90;;;;;;5121170;27;20679;-77
2021/12/20 07:28:39;;;;;;;7.13;2.35;;;2.80;99.90;;;;;;5120557;27;20046;-77
2021/12/20 07:31:04;;;;;;;3.78;2.67;;;2.80;99.90;;;;;;5120450;27;20118;-77
2021/12/20 07:33:30;;;;;;;6.43;2.08;;;2.80;99.90;;;;;;5119881;27;20046;-77
2021/12/20 07:35:55;;;;;;;5.65;1.83;;;2.70;99.90;;;;;;5120293;27;20031;-75
2021/12/20 07:38:22;;;;;;;5.03;2.53;;;2.70;99.90;;;;;;5139620;27;20569;-75
2021/12/20 07:40:49;;;;;;;6.82;3.00;;;2.70;99.90;;;;;;5139410;27;20065;-75
2021/12/20 07:43:17;;;;;;;5.57;2.60;;;2.70;99.90;;;;;;5120044;27;20137;-75
2021/12/20 07:45:47;;;;;;;2.92;2.13;;;2.70;99.90;;;;;;5118757;27;20081;-75
2021/12/20 07:48:13;;;;;;;7.65;3.15;;;2.70;99.90;;;;;;5136428;27;20041;-75
2021/12/20 07:50:39;;;;;;;4.22;1.95;;;2.70;99.90;;;;;;5137919;27;20055;-75
2021/12/20 07:53:04;;;;;;;8.93;3.55;;;2.60;99.90;;;;;;5118943;27;20049;-75
2021/12/20 07:55:30;;;;;;;4.38;2.72;;;2.60;99.90;;;;;;4052681;27;10000808;-70
2021/12/20 07:57:57;;;;;;;12.05;3.15;;;2.60;99.90;;;;;;5115844;27;20066;-72
2021/12/20 08:00:23;;;;;;;5.07;2.50;;;2.60;99.90;;;;;;5136172;27;20062;-75
2021/12/20 08:02:49;;;;;;;4.82;2.03;;;2.60;99.90;;;;;;5116411;27;20049;-75
2021/12/20 08:05:15;;;;;;;8.82;2.35;;;2.60;99.90;;;;;;5134076;27;20081;-75
2021/12/20 08:07:41;;;;;;;8.63;2.80;;;2.60;99.90;;;;;;5115843;27;20039;-75
2021/12/20 08:10:09;;;;;;;5.68;3.28;;;2.60;99.90;;;;;;5116430;27;20100;-74
2021/12/20 08:12:35;;;;;;;5.60;2.03;;;2.60;99.90;;;;;;5117131;27;20039;-75
2021/12/20 08:15:00;;;;;;;7.85;2.40;;;2.60;99.90;;;;;;5136106;27;20742;-75
2021/12/20 08:17:26;;;;;;;22.05;4.18;;;2.60;99.90;;;;;;4425788;27;10000626;-74
2021/12/20 08:19:52;;;;;;;6.53;2.17;;;2.60;99.90;;;;;;5115804;27;20061;-75
2021/12/20 08:22:17;;;;;;;8.88;2.45;;;2.70;99.90;;;;;;5118417;27;20046;-75
2021/12/20 08:24:43;;;;;;;3.50;2.05;;;2.60;99.90;;;;;;5115944;27;20065;-75
2021/12/20 08:27:09;;;;;;;7.68;2.65;;;2.60;99.90;;;;;;5114660;27;20070;-75
2021/12/20 08:29:34;;;;;;;5.18;2.60;;;2.70;99.90;;;;;;5118470;27;20472;-75
2021/12/20 08:32:02;;;;;;;12.90;2.75;;;2.70;99.90;;;;;;5116483;27;20150;-75
2021/12/20 08:34:30;;;;;;;6.07;2.90;;;2.70;99.90;;;;;;5138008;27;20038;-75
2021/12/20 08:36:57;;;;;;;11.10;2.83;;;2.70;99.90;;;;;;5118177;27;20042;-75
2021/12/20 08:39:22;;;;;;;9.32;3.80;;;2.70;99.90;;;;;;5116501;27;20057;-75
2021/12/20 08:41:48;;;;;;;6.40;2.97;;;2.70;99.90;;;;;;5136108;27;20050;-75
2021/12/20 08:44:14;;;;;;;7.75;3.10;;;2.70;99.90;;;;;;5117336;27;20099;-75
2021/12/20 08:46:40;;;;;;;6.22;3.20;;;2.60;99.90;;;;;;5117208;27;20050;-75
2021/12/20 08:49:06;;;;;;;6.15;2.70;;;2.60;99.90;;;;;;5136204;27;20051;-75
2021/12/20 08:51:32;;;;;;;9.63;2.55;;;2.70;99.90;;;;;;5104091;27;20054;-75
2021/12/20 08:53:58;;;;;;;9.02;3.13;;;2.60;99.90;;;;;;5135542;27;20078;-75
2021/12/20 08:56:23;;;;;;;10.00;4.28;;;2.60;99.90;;;;;;5118162;27;20077;-74
2021/12/20 08:58:49;;;;;;;8.60;5.03;;;2.60;99.90;;;;;;5136573;27;20126;-75
2021/12/20 09:01:14;;;;;;;10.02;3.38;;;2.70;99.90;;;;;;5133103;27;20047;-75
2021/12/20 09:03:40;;;;;;;6.63;3.08;;;2.70;99.90;;;;;;5116853;27;20046;-75
2021/12/20 09:06:08;;;;;;;11.60;3.83;;;2.70;99.90;;;;;;5116592;27;20051;-74
2021/12/20 09:08:34;;;;;;;8.68;3.80;;;2.80;99.90;;;;;;5117044;27;20769;-75
2021/12/20 09:11:00;;;;;;;11.32;4.03;;;2.80;99.90;;;;;;5135975;27;20078;-75
2021/12/20 09:13:26;;;;;;;6.55;4.00;;;2.80;99.90;;;;;;5116572;27;20142;-75
2021/12/20 09:15:52;;;;;;;11.88;4.38;;;2.90;99.90;;;;;;5134340;27;20050;-75
2021/12/20 09:18:18;;;;;;;15.30;4.38;;;2.90;99.90;;;;;;5113257;27;20787;-75
2021/12/20 09:20:43;;;;;;;5.72;2.95;;;2.80;99.90;;;;;;5133065;27;20038;-75
2021/12/20 09:23:11;;;;;;;7.72;3.78;;;2.90;99.90;;;;;;4760677;27;10000273;-74
2021/12/20 09:25:41;;;;;;;6.78;2.75;;;3.00;99.90;;;;;;5118681;27;20077;-70
2021/12/20 09:28:10;;;;;;;7.50;3.17;;;3.00;99.90;;;;;;5134084;27;20122;-72
2021/12/20 09:30:37;;;;;;;5.32;2.95;;;3.10;99.90;;;;;;5138124;27;20103;-72
2021/12/20 09:33:04;;;;;;;6.55;3.65;;;3.10;99.90;;;;;;5115051;27;20153;-72
2021/12/20 09:35:30;;;;;;;14.77;3.90;;;3.20;99.90;;;;;;5118546;27;20062;-71
2021/12/20 09:37:56;;;;;;;17.27;6.65;;;3.30;99.90;;;;;;5137552;27;20038;-71
2021/12/20 09:40:30;;;;;;;17.30;5.95;;;3.40;99.90;;;;;;5119060;27;20051;-71
2021/12/20 09:43:05;;;;;;;21.88;6.00;;;3.40;99.90;;;;;;5118093;27;20039;-71
2021/12/20 09:45:31;;;;;;;13.13;5.47;;;3.50;99.90;;;;;;5116623;27;20058;-71
2021/12/20 09:47:57;;;;;;;10.68;6.55;;;3.50;99.90;;;;;;5136981;27;20050;-75
2021/12/20 09:50:23;;;;;;;17.55;6.95;;;3.50;99.90;;;;;;5136866;27;20039;-75
2021/12/20 09:52:49;;;;;;;14.27;5.90;;;3.70;99.90;;;;;;5135018;27;20153;-74
2021/12/20 09:55:16;;;;;;;14.77;7.68;;;3.80;99.90;;;;;;5134769;27;20039;-75
2021/12/20 09:57:45;;;;;;;9.45;4.50;;;3.80;99.90;;;;;;5114174;27;20054;-75
2021/12/20 10:00:12;;;;;;;9.15;4.50;;;3.90;99.90;;;;;;5134285;27;20488;-74
2021/12/20 10:02:38;;;;;;;18.40;6.03;;;3.90;99.90;;;;;;5132001;27;20141;-75
2021/12/20 10:05:04;;;;;;;6.30;4.13;;;3.90;99.90;;;;;;5114789;27;20050;-75
2021/12/20 10:07:30;;;;;;;8.38;4.53;;;3.90;99.90;;;;;;5135934;27;20134;-75
2021/12/20 10:09:56;;;;;;;7.88;3.67;;;4.00;99.90;;;;;;5117574;27;20189;-74
2021/12/20 10:12:25;;;;;;;5.88;3.58;;;4.00;99.90;;;;;;5113954;27;20253;-74
2021/12/20 10:15:02;;;;;;;4.47;3.30;;;4.10;99.90;;;;;;5114469;27;20050;-74
2021/12/20 10:17:55;;;;;;;9.48;3.63;;;4.10;99.90;;;;;;5132473;27;20042;-74
2021/12/20 10:20:24;;;;;;;5.18;3.53;;;4.20;99.90;;;;;;5133555;27;20053;-75
2021/12/20 10:22:51;;;;;;;9.00;3.95;;;4.20;99.90;;;;;;5113130;27;20101;-75
2021/12/20 10:25:30;;;;;;;6.90;3.25;;;4.30;99.90;;;;;;5114106;27;20512;-75
2021/12/20 10:28:14;;;;;;;8.20;3.42;;;4.40;99.90;;;;;;5114367;27;20985;-71
2021/12/20 10:30:46;;;;;;;8.02;4.80;;;4.40;99.90;;;;;;5114685;27;20705;-74
2021/12/20 10:33:15;;;;;;;10.68;4.25;;;4.40;99.90;;;;;;5128572;27;20157;-75
2021/12/20 10:36:05;;;;;;;10.07;3.38;;;4.40;99.90;;;;;;5114676;27;20930;-74
2021/12/20 10:38:37;;;;;;;8.80;3.63;;;4.50;99.90;;;;;;5102718;27;20069;-75
2021/12/20 10:41:16;;;;;;;10.38;4.90;;;4.50;99.90;;;;;;5132743;27;20042;-75
2021/12/20 10:43:55;;;;;;;7.40;3.83;;;4.50;99.90;;;;;;5126523;27;20050;-75
2021/12/20 10:46:24;;;;;;;8.77;4.93;;;4.50;99.90;;;;;;5114424;27;20123;-75
2021/12/20 10:48:52;;;;;;;9.60;4.68;;;4.60;99.90;;;;;;5133004;27;20050;-75
2021/12/20 10:51:22;;;;;;;10.20;4.82;;;4.60;99.90;;;;;;5135436;27;20900;-71
2021/12/20 10:53:57;;;;;;;12.55;4.35;;;4.60;99.90;;;;;;5135226;27;20490;-71
2021/12/20 10:56:22;;;;;;;11.85;4.80;;;4.60;99.90;;;;;;5135457;27;20095;-71
2021/12/20 10:58:48;;;;;;;10.90;5.93;;;4.60;99.90;;;;;;5136409;27;20050;-71
2021/12/20 11:01:28;;;;;;;10.35;4.70;;;4.60;99.90;;;;;;5117592;27;20062;-71
2021/12/20 11:04:04;;;;;;;14.48;5.30;;;4.60;99.90;;;;;;5133938;27;20058;-71
2021/12/20 11:09:13;;;;;;;14.05;4.60;;;4.60;99.90;;;;;;5132792;27;20046;-74
2021/12/20 11:11:43;;;;;;;9.95;4.28;;;4.60;99.90;;;;;;5131943;27;20094;-73
2021/12/20 11:14:09;;;;;;;14.05;5.20;;;4.60;99.90;;;;;;5112032;27;20137;-73
2021/12/20 11:16:45;;;;;;;14.48;5.70;;;4.70;99.90;;;;;;5133210;27;20070;-73
2021/12/20 11:19:23;;;;;;;12.82;5.15;;;4.70;99.90;;;;;;5131950;27;20800;-73
2021/12/20 11:21:51;;;;;;;11.70;6.53;;;4.70;99.90;;;;;;5112643;27;20046;-73
2021/12/20 11:24:56;;;;;;;18.02;7.07;;;4.80;99.90;;;;;;5116854;27;20054;-75
2021/12/20 11:27:30;;;;;;;12.20;5.82;;;4.80;99.90;;;;;;5101377;27;20055;-71
2021/12/20 11:29:57;;;;;;;8.43;4.35;;;4.90;99.90;;;;;;5135670;27;20107;-74
2021/12/20 11:32:24;;;;;;;15.57;6.60;;;4.90;99.90;;;;;;5120703;27;20062;-75
2021/12/20 11:34:50;;;;;;;15.23;6.28;;;4.90;99.90;;;;;;5119390;27;20066;-74
2021/12/20 11:37:19;;;;;;;7.38;5.07;;;5.00;99.90;;;;;;5119658;27;20211;-74
2021/12/20 11:39:46;;;;;;;13.18;7.38;;;5.10;99.90;;;;;;5138129;27;20034;-73
2021/12/20 11:42:14;;;;;;;10.55;5.38;;;5.10;99.90;;;;;;5137270;27;20997;-74
2021/12/20 11:44:43;;;;;;;14.05;4.55;;;5.00;99.90;;;;;;5138744;27;20495;-74
2021/12/20 11:47:31;;;;;;;13.30;4.80;;;5.00;99.90;;;;;;5135317;27;20070;-74
2021/12/20 11:50:03;;;;;;;15.65;5.60;;;5.10;99.90;;;;;;5137503;27;20038;-74
2021/12/20 11:52:31;;;;;;;11.95;5.35;;;5.10;99.90;;;;;;5140137;27;20078;-74
2021/12/20 11:54:57;;;;;;;12.95;5.55;;;5.20;99.90;;;;;;5122098;27;20050;-74
2021/12/20 11:57:33;;;;;;;11.68;4.82;;;5.20;99.90;;;;;;5119569;27;20046;-74
2021/12/20 12:00:04;;;;;;;14.02;4.85;;;5.30;99.90;;;;;;5121458;27;20858;-74
2021/12/20 12:02:33;;;;;;;13.60;5.07;;;5.20;99.90;;;;;;5121402;27;20442;-74
2021/12/20 12:05:09;;;;;;;9.55;4.32;;;5.40;99.90;;;;;;5139394;27;20133;-74
2021/12/20 12:07:36;;;;;;;21.58;4.80;;;5.40;99.90;;;;;;5137829;27;20111;-74
2021/12/20 12:10:09;;;;;;;14.27;6.13;;;5.40;99.90;;;;;;5139118;27;20047;-73
2021/12/20 12:12:40;;;;;;;;;;;5.40;99.90;;;;;;5138691;27;20089;-74
2021/12/20 12:15:17;;;;;;;8.25;5.40;;;5.40;99.90;;;;;;5139539;27;19926;-73
2021/12/20 12:18:03;;;;;;;13.63;5.53;;;5.40;99.90;;;;;;5139132;27;20042;-74
2021/12/20 12:20:35;;;;;;;22.48;6.53;;;5.40;99.90;;;;;;5120752;27;20145;-74
2021/12/20 12:23:13;;;;;;;17.88;5.82;;;5.40;99.90;;;;;;5140067;27;20046;-74
2021/12/20 12:25:43;;;;;;;14.73;6.07;;;5.50;99.90;;;;;;5120338;27;20146;-74
2021/12/20 12:28:10;;;;;;;796.15;270.83;;;5.40;99.90;;;;;;5135542;27;20042;-72
2021/12/20 12:30:37;;;;;;;751.83;258.38;;;5.60;99.90;;;;;;5141289;27;20095;-71
2021/12/20 12:33:02;;;;;;;82.93;33.15;;;6.20;99.90;;;;;;5137173;27;20054;-72
2021/12/20 12:35:37;;;;;;;20.55;12.63;;;6.20;99.90;;;;;;5122766;27;20050;-71
2021/12/20 12:38:36;;;;;;;12.55;7.60;;;6.80;99.90;;;;;;5140618;27;20600;-71
2021/12/20 12:41:04;;;;;;;10.32;5.13;;;6.40;99.90;;;;;;5118570;27;20046;-76
2021/12/20 12:44:06;;;;;;;8.65;4.55;;;6.10;99.90;;;;;;5118997;27;20047;-75
2021/12/20 12:46:45;;;;;;;10.60;4.68;;;6.00;99.90;;;;;;5140589;27;20047;-75
2021/12/20 12:49:22;;;;;;;10.57;4.88;;;5.90;99.90;;;;;;5139932;27;20522;-75
2021/12/20 12:52:02;;;;;;;9.13;4.72;;;5.90;99.90;;;;;;5137762;27;20043;-75
2021/12/20 12:54:33;;;;;;;6.70;5.10;;;5.80;99.90;;;;;;5136613;27;20055;-75
2021/12/20 12:57:11;;;;;;;14.55;5.70;;;5.90;99.90;;;;;;5118078;27;20057;-76
2021/12/20 12:59:47;;;;;;;11.02;4.85;;;5.80;99.90;;;;;;5137847;27;20034;-75
2021/12/20 13:02:22;;;;;;;20.85;6.28;;;5.80;99.90;;;;;;5118812;27;20461;-76
2021/12/20 13:04:49;;;;;;;9.80;6.38;;;5.80;99.90;;;;;;5121113;27;20062;-75
2021/12/20 13:07:26;;;;;;;8.35;5.63;;;5.70;99.90;;;;;;5139566;27;20049;-75
2021/12/20 13:09:54;;;;;;;12.95;5.70;;;5.60;99.90;;;;;;5139699;27;20067;-75